sensor_id;sensor_type;location;lat;lon;timestamp;P1;durP1;ratioP1;P2;durP2;ratioP2
78542;SDS011;67836;52.430;14.446;2023-02-28T00:01:27;9.35;;;3.70;;
78542;SDS011;67836;52.430;14.446;2023-02-28T00:04:11;14.55;;;5.80;;
78542;SDS011;67836;52.430;14.446;2023-02-28T00:06:55;9.00;;;4.70;;
78542;SDS011;67836;52.430;14.446;2023-02-28T00:09:38;5.20;;;3.20;;
78542;SDS011;67836;52.430;14.446;2023-02-28T00:12:23;6.47;;;3.45;;
78542;SDS011;67836;52.430;14.446;2023-02-28T00:15:07;13.57;;;5.78;;
78542;SDS011;67836;52.430;14.446;2023-02-28T00:17:52;8.27;;;3.95;;
78542;SDS011;67836;52.430;14.446;2023-02-28T00:20:37;10.25;;;4.15;;
78542;SDS011;67836;52.430;14.446;2023-02-28T00:23:20;15.60;;;6.80;;
78542;SDS011;67836;52.430;14.446;2023-02-28T00:26:05;13.15;;;5.70;;
78542;SDS011;67836;52.430;14.446;2023-02-28T00:28:51;15.25;;;7.05;;
78542;SDS011;67836;52.430;14.446;2023-02-28T00:31:36;14.77;;;6.82;;
78542;SDS011;67836;52.430;14.446;2023-02-28T00:34:20;16.40;;;6.75;;
78542;SDS011;67836;52.430;14.446;2023-02-28T00:37:07;13.90;;;6.03;;
78542;SDS011;67836;52.430;14.446;2023-02-28T00:39:51;10.48;;;5.20;;
78542;SDS011;67836;52.430;14.446;2023-02-28T00:42:36;8.40;;;3.58;;
78542;SDS011;67836;52.430;14.446;2023-02-28T00:45:20;13.18;;;5.28;;
78542;SDS011;67836;52.430;14.446;2023-02-28T00:48:04;8.18;;;3.70;;
78542;SDS011;67836;52.430;14.446;2023-02-28T00:50:49;15.88;;;7.40;;
78542;SDS011;67836;52.430;14.446;2023-02-28T00:53:33;13.68;;;6.45;;
78542;SDS011;67836;52.430;14.446;2023-02-28T00:56:17;14.13;;;6.00;;
78542;SDS011;67836;52.430;14.446;2023-02-28T00:59:01;14.15;;;5.88;;
78542;SDS011;67836;52.430;14.446;2023-02-28T01:01:46;13.50;;;5.57;;
78542;SDS011;67836;52.430;14.446;2023-02-28T01:04:30;11.18;;;5.60;;
78542;SDS011;67836;52.430;14.446;2023-02-28T01:07:14;8.98;;;4.50;;
78542;SDS011;67836;52.430;14.446;2023-02-28T01:09:58;15.65;;;7.63;;
78542;SDS011;67836;52.430;14.446;2023-02-28T01:12:41;12.18;;;6.22;;
78542;SDS011;67836;52.430;14.446;2023-02-28T01:15:26;13.77;;;6.60;;
78542;SDS011;67836;52.430;14.446;2023-02-28T01:18:10;13.68;;;6.53;;
78542;SDS011;67836;52.430;14.446;2023-02-28T01:20:54;15.88;;;7.28;;
78542;SDS011;67836;52.430;14.446;2023-02-28T01:23:39;12.75;;;5.22;;
78542;SDS011;67836;52.430;14.446;2023-02-28T01:26:23;5.10;;;2.00;;
78542;SDS011;67836;52.430;14.446;2023-02-28T01:29:08;15.30;;;6.75;;
78542;SDS011;67836;52.430;14.446;2023-02-28T01:31:52;3.40;;;2.55;;
78542;SDS011;67836;52.430;14.446;2023-02-28T01:34:36;8.63;;;4.20;;
78542;SDS011;67836;52.430;14.446;2023-02-28T01:37:23;13.18;;;6.32;;
78542;SDS011;67836;52.430;14.446;2023-02-28T01:40:07;15.90;;;7.15;;
78542;SDS011;67836;52.430;14.446;2023-02-28T01:42:52;14.18;;;7.18;;
78542;SDS011;67836;52.430;14.446;2023-02-28T01:45:36;17.73;;;7.13;;
78542;SDS011;67836;52.430;14.446;2023-02-28T01:48:24;12.75;;;6.32;;
78542;SDS011;67836;52.430;14.446;2023-02-28T01:51:11;15.40;;;7.97;;
78542;SDS011;67836;52.430;14.446;2023-02-28T01:54:07;12.88;;;5.65;;
78542;SDS011;67836;52.430;14.446;2023-02-28T01:59:50;14.20;;;6.90;;
78542;SDS011;67836;52.430;14.446;2023-02-28T02:02:36;18.02;;;7.35;;
78542;SDS011;67836;52.430;14.446;2023-02-28T02:05:21;16.27;;;6.70;;
78542;SDS011;67836;52.430;14.446;2023-02-28T02:08:08;14.05;;;7.00;;
78542;SDS011;67836;52.430;14.446;2023-02-28T02:10:57;14.52;;;6.00;;
78542;SDS011;67836;52.430;14.446;2023-02-28T02:14:00;17.15;;;8.05;;
78542;SDS011;67836;52.430;14.446;2023-02-28T02:17:02;14.90;;;7.28;;
78542;SDS011;67836;52.430;14.446;2023-02-28T02:26:40;15.55;;;8.27;;
78542;SDS011;67836;52.430;14.446;2023-02-28T02:29:37;18.25;;;8.05;;
78542;SDS011;67836;52.430;14.446;2023-02-28T02:35:51;4.35;;;3.13;;
78542;SDS011;67836;52.430;14.446;2023-02-28T02:38:39;14.77;;;7.65;;
78542;SDS011;67836;52.430;14.446;2023-02-28T02:47:13;9.18;;;4.32;;
78542;SDS011;67836;52.430;14.446;2023-02-28T02:50:00;16.15;;;7.65;;
78542;SDS011;67836;52.430;14.446;2023-02-28T02:52:49;14.50;;;6.50;;
78542;SDS011;67836;52.430;14.446;2023-02-28T02:55:37;17.50;;;7.47;;
78542;SDS011;67836;52.430;14.446;2023-02-28T02:58:25;12.10;;;6.10;;
78542;SDS011;67836;52.430;14.446;2023-02-28T03:01:12;17.58;;;7.10;;
78542;SDS011;67836;52.430;14.446;2023-02-28T03:04:13;16.50;;;7.95;;
78542;SDS011;67836;52.430;14.446;2023-02-28T03:07:00;15.90;;;7.85;;
78542;SDS011;67836;52.430;14.446;2023-02-28T03:09:51;13.88;;;7.38;;
78542;SDS011;67836;52.430;14.446;2023-02-28T03:12:40;16.88;;;7.53;;
78542;SDS011;67836;52.430;14.446;2023-02-28T03:15:27;19.85;;;7.40;;
78542;SDS011;67836;52.430;14.446;2023-02-28T03:18:21;10.30;;;5.32;;
78542;SDS011;67836;52.430;14.446;2023-02-28T03:21:15;7.57;;;3.22;;
78542;SDS011;67836;52.430;14.446;2023-02-28T03:24:03;11.80;;;5.07;;
78542;SDS011;67836;52.430;14.446;2023-02-28T03:26:51;4.38;;;2.17;;
78542;SDS011;67836;52.430;14.446;2023-02-28T03:29:39;12.27;;;7.05;;
78542;SDS011;67836;52.430;14.446;2023-02-28T03:32:33;13.57;;;5.78;;
78542;SDS011;67836;52.430;14.446;2023-02-28T03:35:37;18.35;;;7.45;;
78542;SDS011;67836;52.430;14.446;2023-02-28T03:38:31;15.10;;;6.72;;
78542;SDS011;67836;52.430;14.446;2023-02-28T03:44:09;5.88;;;3.40;;
78542;SDS011;67836;52.430;14.446;2023-02-28T03:47:02;9.68;;;5.68;;
78542;SDS011;67836;52.430;14.446;2023-02-28T03:49:59;9.23;;;5.22;;
78542;SDS011;67836;52.430;14.446;2023-02-28T03:52:50;15.48;;;6.78;;
78542;SDS011;67836;52.430;14.446;2023-02-28T03:55:42;9.77;;;4.70;;
78542;SDS011;67836;52.430;14.446;2023-02-28T03:58:39;11.00;;;4.57;;
78542;SDS011;67836;52.430;14.446;2023-02-28T04:01:30;13.07;;;6.28;;
78542;SDS011;67836;52.430;14.446;2023-02-28T04:04:17;13.02;;;5.72;;
78542;SDS011;67836;52.430;14.446;2023-02-28T04:10:08;12.80;;;5.90;;
78542;SDS011;67836;52.430;14.446;2023-02-28T04:12:52;16.77;;;4.85;;
78542;SDS011;67836;52.430;14.446;2023-02-28T04:15:37;13.73;;;6.28;;
78542;SDS011;67836;52.430;14.446;2023-02-28T04:18:21;11.75;;;5.95;;
78542;SDS011;67836;52.430;14.446;2023-02-28T04:21:06;2.25;;;2.08;;
78542;SDS011;67836;52.430;14.446;2023-02-28T04:23:50;9.73;;;4.78;;
78542;SDS011;67836;52.430;14.446;2023-02-28T04:26:35;11.88;;;5.85;;
78542;SDS011;67836;52.430;14.446;2023-02-28T04:29:21;16.63;;;7.82;;
78542;SDS011;67836;52.430;14.446;2023-02-28T04:32:12;5.63;;;3.03;;
78542;SDS011;67836;52.430;14.446;2023-02-28T04:34:56;14.60;;;6.88;;
78542;SDS011;67836;52.430;14.446;2023-02-28T04:37:40;12.82;;;5.90;;
78542;SDS011;67836;52.430;14.446;2023-02-28T04:40:24;12.98;;;5.28;;
78542;SDS011;67836;52.430;14.446;2023-02-28T04:43:08;12.68;;;6.30;;
78542;SDS011;67836;52.430;14.446;2023-02-28T04:45:52;15.88;;;7.75;;
78542;SDS011;67836;52.430;14.446;2023-02-28T04:48:38;14.70;;;6.80;;
78542;SDS011;67836;52.430;14.446;2023-02-28T04:51:23;16.48;;;7.45;;
78542;SDS011;67836;52.430;14.446;2023-02-28T04:54:07;14.35;;;7.60;;
78542;SDS011;67836;52.430;14.446;2023-02-28T04:56:51;21.30;;;8.70;;
78542;SDS011;67836;52.430;14.446;2023-02-28T04:59:35;17.30;;;6.85;;
78542;SDS011;67836;52.430;14.446;2023-02-28T05:02:19;13.05;;;6.68;;
78542;SDS011;67836;52.430;14.446;2023-02-28T05:05:04;14.50;;;5.95;;
78542;SDS011;67836;52.430;14.446;2023-02-28T05:07:49;15.20;;;7.38;;
78542;SDS011;67836;52.430;14.446;2023-02-28T05:10:33;19.50;;;7.30;;
78542;SDS011;67836;52.430;14.446;2023-02-28T05:13:17;14.80;;;6.65;;
78542;SDS011;67836;52.430;14.446;2023-02-28T05:16:02;10.85;;;5.55;;
78542;SDS011;67836;52.430;14.446;2023-02-28T05:18:46;17.70;;;7.13;;
78542;SDS011;67836;52.430;14.446;2023-02-28T05:21:34;14.02;;;6.35;;
78542;SDS011;67836;52.430;14.446;2023-02-28T05:24:19;15.40;;;8.10;;
78542;SDS011;67836;52.430;14.446;2023-02-28T05:27:06;13.88;;;6.65;;
78542;SDS011;67836;52.430;14.446;2023-02-28T05:29:51;12.48;;;5.55;;
78542;SDS011;67836;52.430;14.446;2023-02-28T05:32:39;15.48;;;6.75;;
78542;SDS011;67836;52.430;14.446;2023-02-28T05:35:27;8.77;;;4.80;;
78542;SDS011;67836;52.430;14.446;2023-02-28T05:38:11;15.10;;;6.40;;
78542;SDS011;67836;52.430;14.446;2023-02-28T05:40:55;17.52;;;6.75;;
78542;SDS011;67836;52.430;14.446;2023-02-28T05:43:40;15.30;;;6.43;;
78542;SDS011;67836;52.430;14.446;2023-02-28T05:46:24;17.85;;;6.90;;
78542;SDS011;67836;52.430;14.446;2023-02-28T05:49:08;16.13;;;7.05;;
78542;SDS011;67836;52.430;14.446;2023-02-28T05:51:52;12.93;;;5.68;;
78542;SDS011;67836;52.430;14.446;2023-02-28T05:54:36;11.65;;;6.05;;
78542;SDS011;67836;52.430;14.446;2023-02-28T05:57:20;11.65;;;6.75;;
78542;SDS011;67836;52.430;14.446;2023-02-28T06:00:05;17.58;;;7.65;;
78542;SDS011;67836;52.430;14.446;2023-02-28T06:02:49;13.07;;;6.55;;
78542;SDS011;67836;52.430;14.446;2023-02-28T06:05:33;15.55;;;6.60;;
78542;SDS011;67836;52.430;14.446;2023-02-28T06:08:17;19.02;;;7.18;;
78542;SDS011;67836;52.430;14.446;2023-02-28T06:11:04;9.48;;;5.75;;
78542;SDS011;67836;52.430;14.446;2023-02-28T06:13:49;9.10;;;5.03;;
78542;SDS011;67836;52.430;14.446;2023-02-28T06:16:33;14.27;;;6.38;;
78542;SDS011;67836;52.430;14.446;2023-02-28T06:19:18;11.85;;;5.72;;
78542;SDS011;67836;52.430;14.446;2023-02-28T06:22:02;11.77;;;5.13;;
78542;SDS011;67836;52.430;14.446;2023-02-28T06:24:46;9.15;;;5.20;;
78542;SDS011;67836;52.430;14.446;2023-02-28T06:27:31;15.23;;;6.78;;
78542;SDS011;67836;52.430;14.446;2023-02-28T06:30:16;12.52;;;6.75;;
78542;SDS011;67836;52.430;14.446;2023-02-28T06:33:00;15.77;;;7.55;;
78542;SDS011;67836;52.430;14.446;2023-02-28T06:35:46;14.10;;;6.97;;
78542;SDS011;67836;52.430;14.446;2023-02-28T06:38:30;15.25;;;6.22;;
78542;SDS011;67836;52.430;14.446;2023-02-28T06:41:14;11.90;;;5.18;;
78542;SDS011;67836;52.430;14.446;2023-02-28T06:43:58;16.63;;;7.75;;
78542;SDS011;67836;52.430;14.446;2023-02-28T06:46:43;17.88;;;8.73;;
78542;SDS011;67836;52.430;14.446;2023-02-28T06:49:28;11.77;;;6.50;;
78542;SDS011;67836;52.430;14.446;2023-02-28T06:52:16;16.25;;;7.78;;
78542;SDS011;67836;52.430;14.446;2023-02-28T06:55:00;21.15;;;9.20;;
78542;SDS011;67836;52.430;14.446;2023-02-28T06:57:44;16.95;;;7.90;;
78542;SDS011;67836;52.430;14.446;2023-02-28T07:00:28;17.73;;;9.05;;
78542;SDS011;67836;52.430;14.446;2023-02-28T07:03:12;22.15;;;11.23;;
78542;SDS011;67836;52.430;14.446;2023-02-28T07:05:58;21.27;;;10.65;;
78542;SDS011;67836;52.430;14.446;2023-02-28T07:08:42;21.83;;;12.55;;
78542;SDS011;67836;52.430;14.446;2023-02-28T07:11:27;23.45;;;12.15;;
78542;SDS011;67836;52.430;14.446;2023-02-28T07:14:11;23.15;;;12.23;;
78542;SDS011;67836;52.430;14.446;2023-02-28T07:16:55;23.50;;;12.52;;
78542;SDS011;67836;52.430;14.446;2023-02-28T07:19:40;21.25;;;12.38;;
78542;SDS011;67836;52.430;14.446;2023-02-28T07:22:24;22.75;;;12.70;;
78542;SDS011;67836;52.430;14.446;2023-02-28T07:25:08;26.02;;;14.73;;
78542;SDS011;67836;52.430;14.446;2023-02-28T07:27:53;24.13;;;13.77;;
78542;SDS011;67836;52.430;14.446;2023-02-28T07:30:37;25.40;;;13.93;;
78542;SDS011;67836;52.430;14.446;2023-02-28T07:33:22;28.67;;;14.52;;
78542;SDS011;67836;52.430;14.446;2023-02-28T07:36:09;21.98;;;15.20;;
78542;SDS011;67836;52.430;14.446;2023-02-28T07:38:58;24.83;;;15.02;;
78542;SDS011;67836;52.430;14.446;2023-02-28T07:41:43;23.15;;;14.63;;
78542;SDS011;67836;52.430;14.446;2023-02-28T07:44:27;24.98;;;14.75;;
78542;SDS011;67836;52.430;14.446;2023-02-28T07:47:12;22.85;;;14.05;;
78542;SDS011;67836;52.430;14.446;2023-02-28T07:49:56;20.30;;;12.73;;
78542;SDS011;67836;52.430;14.446;2023-02-28T07:52:40;23.40;;;14.07;;
78542;SDS011;67836;52.430;14.446;2023-02-28T07:55:24;19.02;;;11.18;;
78542;SDS011;67836;52.430;14.446;2023-02-28T07:58:08;17.17;;;10.38;;
78542;SDS011;67836;52.430;14.446;2023-02-28T08:00:52;20.63;;;11.30;;
78542;SDS011;67836;52.430;14.446;2023-02-28T08:03:37;18.65;;;11.60;;
78542;SDS011;67836;52.430;14.446;2023-02-28T08:06:22;20.63;;;11.32;;
78542;SDS011;67836;52.430;14.446;2023-02-28T08:09:07;19.48;;;12.35;;
78542;SDS011;67836;52.430;14.446;2023-02-28T08:11:51;21.20;;;13.18;;
78542;SDS011;67836;52.430;14.446;2023-02-28T08:14:35;22.42;;;13.40;;
78542;SDS011;67836;52.430;14.446;2023-02-28T08:17:19;22.48;;;13.82;;
78542;SDS011;67836;52.430;14.446;2023-02-28T08:20:03;19.45;;;11.93;;
78542;SDS011;67836;52.430;14.446;2023-02-28T08:22:47;19.08;;;11.35;;
78542;SDS011;67836;52.430;14.446;2023-02-28T08:25:32;17.67;;;11.07;;
78542;SDS011;67836;52.430;14.446;2023-02-28T08:28:16;18.75;;;12.13;;
78542;SDS011;67836;52.430;14.446;2023-02-28T08:31:00;16.58;;;9.88;;
78542;SDS011;67836;52.430;14.446;2023-02-28T08:33:44;20.23;;;13.13;;
78542;SDS011;67836;52.430;14.446;2023-02-28T08:36:28;19.90;;;10.48;;
78542;SDS011;67836;52.430;14.446;2023-02-28T08:39:13;18.50;;;10.10;;
78542;SDS011;67836;52.430;14.446;2023-02-28T08:41:57;18.08;;;10.23;;
78542;SDS011;67836;52.430;14.446;2023-02-28T08:44:41;16.73;;;9.75;;
78542;SDS011;67836;52.430;14.446;2023-02-28T08:47:25;18.17;;;9.95;;
78542;SDS011;67836;52.430;14.446;2023-02-28T08:50:10;17.85;;;8.57;;
78542;SDS011;67836;52.430;14.446;2023-02-28T08:52:54;15.27;;;9.02;;
78542;SDS011;67836;52.430;14.446;2023-02-28T08:55:38;14.93;;;8.80;;
78542;SDS011;67836;52.430;14.446;2023-02-28T08:58:22;14.15;;;8.43;;
78542;SDS011;67836;52.430;14.446;2023-02-28T09:01:10;16.75;;;9.48;;
78542;SDS011;67836;52.430;14.446;2023-02-28T09:04:10;13.82;;;7.20;;
78542;SDS011;67836;52.430;14.446;2023-02-28T09:06:55;14.30;;;7.80;;
78542;SDS011;67836;52.430;14.446;2023-02-28T09:09:39;13.65;;;7.97;;
78542;SDS011;67836;52.430;14.446;2023-02-28T09:12:37;14.50;;;8.65;;
78542;SDS011;67836;52.430;14.446;2023-02-28T09:15:21;15.27;;;7.75;;
78542;SDS011;67836;52.430;14.446;2023-02-28T09:18:05;12.80;;;6.93;;
78542;SDS011;67836;52.430;14.446;2023-02-28T09:20:49;13.25;;;6.78;;
78542;SDS011;67836;52.430;14.446;2023-02-28T09:23:34;12.30;;;7.95;;
78542;SDS011;67836;52.430;14.446;2023-02-28T09:26:20;14.57;;;6.75;;
78542;SDS011;67836;52.430;14.446;2023-02-28T09:29:09;12.35;;;6.60;;
78542;SDS011;67836;52.430;14.446;2023-02-28T09:31:53;10.80;;;5.68;;
78542;SDS011;67836;52.430;14.446;2023-02-28T09:34:37;12.18;;;5.93;;
78542;SDS011;67836;52.430;14.446;2023-02-28T09:37:21;11.50;;;5.80;;
78542;SDS011;67836;52.430;14.446;2023-02-28T09:40:06;11.38;;;6.05;;
78542;SDS011;67836;52.430;14.446;2023-02-28T09:42:51;11.82;;;6.60;;
78542;SDS011;67836;52.430;14.446;2023-02-28T09:45:37;9.88;;;5.40;;
78542;SDS011;67836;52.430;14.446;2023-02-28T09:48:26;11.48;;;5.18;;
78542;SDS011;67836;52.430;14.446;2023-02-28T09:54:23;7.13;;;3.67;;
78542;SDS011;67836;52.430;14.446;2023-02-28T09:57:32;8.63;;;3.60;;
78542;SDS011;67836;52.430;14.446;2023-02-28T10:00:34;5.78;;;2.35;;
78542;SDS011;67836;52.430;14.446;2023-02-28T10:06:41;7.80;;;2.63;;
78542;SDS011;67836;52.430;14.446;2023-02-28T10:09:32;5.10;;;2.17;;
78542;SDS011;67836;52.430;14.446;2023-02-28T10:12:17;5.00;;;1.75;;
78542;SDS011;67836;52.430;14.446;2023-02-28T10:15:01;6.88;;;2.42;;
78542;SDS011;67836;52.430;14.446;2023-02-28T10:17:47;3.42;;;1.55;;
78542;SDS011;67836;52.430;14.446;2023-02-28T10:20:33;2.35;;;1.33;;
78542;SDS011;67836;52.430;14.446;2023-02-28T10:23:22;2.08;;;1.30;;
78542;SDS011;67836;52.430;14.446;2023-02-28T10:26:11;4.63;;;1.60;;
78542;SDS011;67836;52.430;14.446;2023-02-28T10:28:57;6.07;;;2.85;;
78542;SDS011;67836;52.430;14.446;2023-02-28T10:31:42;6.07;;;2.63;;
78542;SDS011;67836;52.430;14.446;2023-02-28T10:34:26;5.72;;;2.08;;
78542;SDS011;67836;52.430;14.446;2023-02-28T10:37:11;4.65;;;1.85;;
78542;SDS011;67836;52.430;14.446;2023-02-28T10:39:56;8.35;;;3.70;;
78542;SDS011;67836;52.430;14.446;2023-02-28T10:42:41;4.10;;;2.05;;
78542;SDS011;67836;52.430;14.446;2023-02-28T10:45:25;6.13;;;2.53;;
78542;SDS011;67836;52.430;14.446;2023-02-28T10:50:57;6.78;;;3.00;;
78542;SDS011;67836;52.430;14.446;2023-02-28T10:53:50;3.95;;;2.05;;
78542;SDS011;67836;52.430;14.446;2023-02-28T10:56:38;6.60;;;2.85;;
78542;SDS011;67836;52.430;14.446;2023-02-28T10:59:30;6.65;;;2.47;;
78542;SDS011;67836;52.430;14.446;2023-02-28T11:02:34;3.50;;;1.45;;
78542;SDS011;67836;52.430;14.446;2023-02-28T11:08:14;5.85;;;2.47;;
78542;SDS011;67836;52.430;14.446;2023-02-28T11:11:08;3.10;;;1.35;;
78542;SDS011;67836;52.430;14.446;2023-02-28T11:13:53;3.70;;;1.92;;
78542;SDS011;67836;52.430;14.446;2023-02-28T11:16:39;3.13;;;1.73;;
78542;SDS011;67836;52.430;14.446;2023-02-28T11:19:24;3.60;;;1.85;;
78542;SDS011;67836;52.430;14.446;2023-02-28T11:22:10;4.72;;;2.05;;
78542;SDS011;67836;52.430;14.446;2023-02-28T11:24:55;3.25;;;1.92;;
78542;SDS011;67836;52.430;14.446;2023-02-28T11:27:44;4.53;;;1.83;;
78542;SDS011;67836;52.430;14.446;2023-02-28T11:30:38;6.38;;;2.58;;
78542;SDS011;67836;52.430;14.446;2023-02-28T11:33:26;5.95;;;2.10;;
78542;SDS011;67836;52.430;14.446;2023-02-28T11:36:13;4.55;;;2.03;;
78542;SDS011;67836;52.430;14.446;2023-02-28T11:39:03;5.32;;;2.55;;
78542;SDS011;67836;52.430;14.446;2023-02-28T11:44:53;3.13;;;1.40;;
78542;SDS011;67836;52.430;14.446;2023-02-28T11:50:50;4.47;;;1.83;;
78542;SDS011;67836;52.430;14.446;2023-02-28T11:56:48;6.85;;;3.22;;
78542;SDS011;67836;52.430;14.446;2023-02-28T12:09:19;4.70;;;2.05;;
78542;SDS011;67836;52.430;14.446;2023-02-28T12:20:49;5.97;;;2.20;;
78542;SDS011;67836;52.430;14.446;2023-02-28T12:26:36;8.02;;;2.65;;
78542;SDS011;67836;52.430;14.446;2023-02-28T12:29:23;8.45;;;2.75;;
78542;SDS011;67836;52.430;14.446;2023-02-28T12:35:03;3.97;;;1.88;;
78542;SDS011;67836;52.430;14.446;2023-02-28T12:37:56;4.00;;;1.90;;
78542;SDS011;67836;52.430;14.446;2023-02-28T12:40:47;6.32;;;2.78;;
78542;SDS011;67836;52.430;14.446;2023-02-28T12:43:46;7.18;;;2.95;;
78542;SDS011;67836;52.430;14.446;2023-02-28T12:46:34;3.63;;;1.65;;
78542;SDS011;67836;52.430;14.446;2023-02-28T12:49:34;4.38;;;1.73;;
78542;SDS011;67836;52.430;14.446;2023-02-28T12:52:30;4.32;;;1.85;;
78542;SDS011;67836;52.430;14.446;2023-02-28T12:58:41;2.55;;;1.13;;
78542;SDS011;67836;52.430;14.446;2023-02-28T13:01:35;4.57;;;1.65;;
78542;SDS011;67836;52.430;14.446;2023-02-28T13:13:27;5.00;;;2.22;;
78542;SDS011;67836;52.430;14.446;2023-02-28T13:16:15;6.13;;;2.28;;
78542;SDS011;67836;52.430;14.446;2023-02-28T13:19:09;4.35;;;2.00;;
78542;SDS011;67836;52.430;14.446;2023-02-28T13:21:54;5.78;;;2.17;;
78542;SDS011;67836;52.430;14.446;2023-02-28T13:24:43;4.43;;;2.03;;
78542;SDS011;67836;52.430;14.446;2023-02-28T13:27:38;6.30;;;2.42;;
78542;SDS011;67836;52.430;14.446;2023-02-28T13:34:22;6.45;;;2.70;;
78542;SDS011;67836;52.430;14.446;2023-02-28T13:36:48;7.88;;;3.63;;
78542;SDS011;67836;52.430;14.446;2023-02-28T13:50:42;6.40;;;3.20;;
78542;SDS011;67836;52.430;14.446;2023-02-28T13:53:32;8.00;;;2.97;;
78542;SDS011;67836;52.430;14.446;2023-02-28T13:56:29;9.07;;;4.07;;
78542;SDS011;67836;52.430;14.446;2023-02-28T14:05:24;7.60;;;2.58;;
78542;SDS011;67836;52.430;14.446;2023-02-28T14:08:18;7.78;;;3.65;;
78542;SDS011;67836;52.430;14.446;2023-02-28T14:11:05;7.10;;;3.22;;
78542;SDS011;67836;52.430;14.446;2023-02-28T14:13:52;6.93;;;3.33;;
78542;SDS011;67836;52.430;14.446;2023-02-28T14:16:37;6.93;;;3.08;;
78542;SDS011;67836;52.430;14.446;2023-02-28T14:19:27;9.05;;;3.63;;
78542;SDS011;67836;52.430;14.446;2023-02-28T14:31:18;6.32;;;2.65;;
78542;SDS011;67836;52.430;14.446;2023-02-28T14:37:20;4.63;;;1.98;;
78542;SDS011;67836;52.430;14.446;2023-02-28T14:40:17;5.32;;;2.00;;
78542;SDS011;67836;52.430;14.446;2023-02-28T14:43:06;6.07;;;2.58;;
78542;SDS011;67836;52.430;14.446;2023-02-28T14:46:01;7.65;;;3.17;;
78542;SDS011;67836;52.430;14.446;2023-02-28T14:48:47;6.20;;;2.75;;
78542;SDS011;67836;52.430;14.446;2023-02-28T14:51:32;6.82;;;2.58;;
78542;SDS011;67836;52.430;14.446;2023-02-28T14:54:17;3.00;;;1.70;;
78542;SDS011;67836;52.430;14.446;2023-02-28T14:57:03;6.88;;;2.72;;
78542;SDS011;67836;52.430;14.446;2023-02-28T14:59:56;6.88;;;2.85;;
78542;SDS011;67836;52.430;14.446;2023-02-28T15:02:41;4.75;;;2.08;;
78542;SDS011;67836;52.430;14.446;2023-02-28T15:05:27;6.82;;;2.58;;
78542;SDS011;67836;52.430;14.446;2023-02-28T15:08:16;4.50;;;1.85;;
78542;SDS011;67836;52.430;14.446;2023-02-28T15:11:13;4.55;;;2.00;;
78542;SDS011;67836;52.430;14.446;2023-02-28T15:13:59;6.78;;;2.97;;
78542;SDS011;67836;52.430;14.446;2023-02-28T15:16:44;4.85;;;2.53;;
78542;SDS011;67836;52.430;14.446;2023-02-28T15:19:30;8.55;;;3.00;;
78542;SDS011;67836;52.430;14.446;2023-02-28T15:22:16;7.07;;;2.33;;
78542;SDS011;67836;52.430;14.446;2023-02-28T15:25:05;6.93;;;2.97;;
78542;SDS011;67836;52.430;14.446;2023-02-28T15:27:53;8.10;;;3.10;;
78542;SDS011;67836;52.430;14.446;2023-02-28T15:30:38;4.65;;;1.67;;
78542;SDS011;67836;52.430;14.446;2023-02-28T15:33:23;5.32;;;2.28;;
78542;SDS011;67836;52.430;14.446;2023-02-28T15:36:12;6.88;;;2.33;;
78542;SDS011;67836;52.430;14.446;2023-02-28T15:38:57;3.60;;;1.55;;
78542;SDS011;67836;52.430;14.446;2023-02-28T15:41:41;7.03;;;2.92;;
78542;SDS011;67836;52.430;14.446;2023-02-28T15:44:27;6.80;;;2.85;;
78542;SDS011;67836;52.430;14.446;2023-02-28T15:47:20;8.05;;;2.55;;
78542;SDS011;67836;52.430;14.446;2023-02-28T15:50:10;2.95;;;1.35;;
78542;SDS011;67836;52.430;14.446;2023-02-28T15:52:56;5.60;;;2.47;;
78542;SDS011;67836;52.430;14.446;2023-02-28T15:55:40;6.05;;;2.10;;
78542;SDS011;67836;52.430;14.446;2023-02-28T15:58:24;2.13;;;1.08;;
78542;SDS011;67836;52.430;14.446;2023-02-28T16:01:25;8.23;;;2.38;;
78542;SDS011;67836;52.430;14.446;2023-02-28T16:04:14;7.65;;;3.08;;
78542;SDS011;67836;52.430;14.446;2023-02-28T16:07:02;5.53;;;1.75;;
78542;SDS011;67836;52.430;14.446;2023-02-28T16:09:47;6.53;;;2.75;;
78542;SDS011;67836;52.430;14.446;2023-02-28T16:12:32;4.50;;;2.20;;
78542;SDS011;67836;52.430;14.446;2023-02-28T16:18:03;2.30;;;1.30;;
78542;SDS011;67836;52.430;14.446;2023-02-28T16:20:47;6.18;;;2.13;;
78542;SDS011;67836;52.430;14.446;2023-02-28T16:23:31;6.50;;;2.40;;
78542;SDS011;67836;52.430;14.446;2023-02-28T16:26:18;7.32;;;2.92;;
78542;SDS011;67836;52.430;14.446;2023-02-28T16:29:05;6.45;;;2.72;;
78542;SDS011;67836;52.430;14.446;2023-02-28T16:31:50;7.38;;;3.00;;
78542;SDS011;67836;52.430;14.446;2023-02-28T16:34:34;8.57;;;3.20;;
78542;SDS011;67836;52.430;14.446;2023-02-28T16:37:18;8.77;;;3.35;;
78542;SDS011;67836;52.430;14.446;2023-02-28T16:40:02;8.68;;;3.33;;
78542;SDS011;67836;52.430;14.446;2023-02-28T16:42:47;8.07;;;3.10;;
78542;SDS011;67836;52.430;14.446;2023-02-28T16:45:32;7.70;;;2.60;;
78542;SDS011;67836;52.430;14.446;2023-02-28T16:48:17;5.13;;;2.53;;
78542;SDS011;67836;52.430;14.446;2023-02-28T16:51:01;7.00;;;3.67;;
78542;SDS011;67836;52.430;14.446;2023-02-28T16:53:47;9.43;;;3.58;;
78542;SDS011;67836;52.430;14.446;2023-02-28T16:56:31;8.57;;;3.20;;
78542;SDS011;67836;52.430;14.446;2023-02-28T16:59:18;8.95;;;4.22;;
78542;SDS011;67836;52.430;14.446;2023-02-28T17:02:10;11.75;;;4.22;;
78542;SDS011;67836;52.430;14.446;2023-02-28T17:04:55;9.70;;;4.18;;
78542;SDS011;67836;52.430;14.446;2023-02-28T17:07:40;12.13;;;6.05;;
78542;SDS011;67836;52.430;14.446;2023-02-28T17:10:25;16.35;;;6.72;;
78542;SDS011;67836;52.430;14.446;2023-02-28T17:13:10;12.70;;;5.63;;
78542;SDS011;67836;52.430;14.446;2023-02-28T17:15:54;9.30;;;4.22;;
78542;SDS011;67836;52.430;14.446;2023-02-28T17:18:38;22.48;;;10.32;;
78542;SDS011;67836;52.430;14.446;2023-02-28T17:21:23;18.40;;;8.45;;
78542;SDS011;67836;52.430;14.446;2023-02-28T17:24:08;12.70;;;6.45;;
78542;SDS011;67836;52.430;14.446;2023-02-28T17:26:52;19.48;;;9.75;;
78542;SDS011;67836;52.430;14.446;2023-02-28T17:29:36;18.40;;;9.30;;
78542;SDS011;67836;52.430;14.446;2023-02-28T17:32:20;13.57;;;5.90;;
78542;SDS011;67836;52.430;14.446;2023-02-28T17:35:05;12.93;;;5.82;;
78542;SDS011;67836;52.430;14.446;2023-02-28T17:37:50;12.20;;;6.32;;
78542;SDS011;67836;52.430;14.446;2023-02-28T17:40:34;16.88;;;8.15;;
78542;SDS011;67836;52.430;14.446;2023-02-28T17:43:18;14.60;;;7.05;;
78542;SDS011;67836;52.430;14.446;2023-02-28T17:46:02;15.27;;;8.43;;
78542;SDS011;67836;52.430;14.446;2023-02-28T17:48:48;10.35;;;5.22;;
78542;SDS011;67836;52.430;14.446;2023-02-28T17:51:33;14.02;;;6.18;;
78542;SDS011;67836;52.430;14.446;2023-02-28T17:54:17;8.95;;;4.15;;
78542;SDS011;67836;52.430;14.446;2023-02-28T17:59:44;7.80;;;3.97;;
78542;SDS011;67836;52.430;14.446;2023-02-28T18:02:28;21.80;;;13.93;;
78542;SDS011;67836;52.430;14.446;2023-02-28T18:05:12;16.75;;;10.30;;
78542;SDS011;67836;52.430;14.446;2023-02-28T18:07:56;9.73;;;4.72;;
78542;SDS011;67836;52.430;14.446;2023-02-28T18:10:41;8.05;;;4.07;;
78542;SDS011;67836;52.430;14.446;2023-02-28T18:13:24;9.00;;;4.18;;
78542;SDS011;67836;52.430;14.446;2023-02-28T18:16:08;8.93;;;4.05;;
78542;SDS011;67836;52.430;14.446;2023-02-28T18:18:53;8.48;;;3.67;;
78542;SDS011;67836;52.430;14.446;2023-02-28T18:21:37;9.38;;;3.70;;